Time;durP1;ratioP1;P1;durP2;ratioP2;P2;SDS_P1;SDS_P2;PMS_P1;PMS_P2;Temp;Humidity;BMP_temperature;BMP_pressure;BME280_temperature;BME280_humidity;BME280_pressure;Samples;Min_cycle;Max_cycle;Signal;HPM_P1;HPM_P2
2022/11/12 00:02:19;;;;;;;11.57;7.80;;;7.50;99.90;;;;;;5125957;27;20042;-75
2022/11/12 00:04:45;;;;;;;10.02;6.88;;;7.50;99.90;;;;;;5124226;27;20047;-75
2022/11/12 00:07:11;;;;;;;8.95;7.38;;;7.40;99.90;;;;;;5102100;27;20060;-75
2022/11/12 00:09:36;;;;;;;10.45;6.72;;;7.50;99.90;;;;;;5141020;27;20129;-75
2022/11/12 00:12:02;;;;;;;9.85;7.57;;;7.40;99.90;;;;;;5144024;27;20595;-75
2022/11/12 00:14:28;;;;;;;7.32;6.13;;;7.40;99.90;;;;;;5142716;27;20508;-74
2022/11/12 00:16:53;;;;;;;9.38;8.20;;;6.90;99.90;;;;;;5144333;27;20067;-74
2022/11/12 00:19:19;;;;;;;13.25;8.65;;;7.90;99.90;;;;;;5124215;27;20043;-74
2022/11/12 00:21:44;;;;;;;9.95;8.27;;;8.60;99.90;;;;;;5108451;27;20031;-74
2022/11/12 00:24:10;;;;;;;9.82;6.95;;;7.30;99.90;;;;;;5143960;27;20046;-75
2022/11/12 00:26:36;;;;;;;11.35;6.95;;;7.30;99.90;;;;;;5141328;27;20096;-75
2022/11/12 00:29:01;;;;;;;12.48;7.45;;;6.60;99.90;;;;;;5125691;27;20066;-75
2022/11/12 00:31:27;;;;;;;10.93;7.45;;;7.20;99.90;;;;;;5142827;27;20474;-75
2022/11/12 00:33:53;;;;;;;11.57;7.00;;;7.20;99.90;;;;;;5124500;27;20026;-75
2022/11/12 00:36:19;;;;;;;8.70;6.60;;;6.80;99.90;;;;;;5109762;27;20055;-75
2022/11/12 00:38:45;;;;;;;9.57;7.55;;;7.10;99.90;;;;;;5119611;27;20054;-74
2022/11/12 00:41:10;;;;;;;10.65;7.60;;;6.90;99.90;;;;;;5124747;27;20075;-74
2022/11/12 00:43:36;;;;;;;11.40;7.35;;;8.70;99.90;;;;;;5115251;27;20078;-75
2022/11/12 00:46:02;;;;;;;11.52;7.75;;;7.10;99.90;;;;;;5125047;27;20066;-74
2022/11/12 00:48:27;;;;;;;8.45;7.43;;;7.10;99.90;;;;;;5123823;27;20038;-75
2022/11/12 00:51:04;;;;;;;13.15;8.30;;;7.40;99.90;;;;;;5125316;27;20034;-75
2022/11/12 00:53:31;;;;;;;9.30;7.47;;;7.10;99.90;;;;;;5124603;27;20383;-75
2022/11/12 00:56:04;;;;;;;11.32;8.27;;;8.10;99.90;;;;;;5124299;27;20079;-74
2022/11/12 00:58:31;;;;;;;10.07;8.20;;;7.10;99.90;;;;;;5122467;27;20070;-74
2022/11/12 01:00:57;;;;;;;8.70;7.80;;;8.00;99.90;;;;;;5107693;27;20053;-75
2022/11/12 01:03:26;;;;;;;12.18;8.48;;;8.30;99.90;;;;;;5117262;27;20458;-74
2022/11/12 01:05:51;;;;;;;11.43;7.55;;;7.10;99.90;;;;;;5123907;27;20046;-75
2022/11/12 01:08:17;;;;;;;11.25;7.70;;;7.10;99.90;;;;;;5124109;27;20034;-74
2022/11/12 01:10:42;;;;;;;11.50;7.55;;;7.10;99.90;;;;;;5123926;27;20039;-75
2022/11/12 01:13:08;;;;;;;9.02;7.25;;;7.50;99.90;;;;;;5149690;27;20031;-74
2022/11/12 01:15:39;;;;;;;11.88;8.35;;;7.40;99.90;;;;;;5124103;27;20043;-75
2022/11/12 01:18:05;;;;;;;10.45;7.82;;;7.00;99.90;;;;;;5148550;27;20041;-75
2022/11/12 01:20:31;;;;;;;14.48;8.27;;;7.00;99.90;;;;;;5150670;27;20034;-75
2022/11/12 01:22:56;;;;;;;10.88;8.15;;;7.00;99.90;;;;;;5123721;27;20091;-74
2022/11/12 01:25:22;;;;;;;12.45;8.15;;;7.00;99.90;;;;;;5124651;27;20076;-75
2022/11/12 01:27:47;;;;;;;8.25;7.43;;;7.00;99.90;;;;;;5141900;27;20071;-75
2022/11/12 01:30:13;;;;;;;10.15;7.15;;;7.00;99.90;;;;;;5123416;27;20429;-75
2022/11/12 01:32:38;;;;;;;11.25;7.47;;;7.00;99.90;;;;;;5124467;27;20027;-75
2022/11/12 01:35:05;;;;;;;11.65;7.85;;;8.40;99.90;;;;;;5108711;27;20062;-75
2022/11/12 01:37:31;;;;;;;9.70;7.40;;;7.00;99.90;;;;;;5121641;27;20035;-75
2022/11/12 01:39:56;;;;;;;11.10;8.10;;;7.30;99.90;;;;;;5122141;27;20061;-74
2022/11/12 01:42:28;;;;;;;8.63;7.60;;;7.00;99.90;;;;;;5113938;27;20578;-75
2022/11/12 01:44:53;;;;;;;9.57;7.72;;;7.00;99.90;;;;;;5120767;27;20117;-75
2022/11/12 01:47:24;;;;;;;8.27;7.07;;;7.00;99.90;;;;;;5122506;27;20555;-75
2022/11/12 01:50:04;;;;;;;9.65;7.20;;;7.00;99.90;;;;;;5125511;27;20039;-75
2022/11/12 01:52:39;;;;;;;9.63;7.28;;;7.00;99.90;;;;;;5117043;27;20054;-75
2022/11/12 01:55:11;;;;;;;11.40;8.45;;;7.00;99.90;;;;;;5118829;27;20038;-75
2022/11/12 01:57:41;;;;;;;10.30;8.25;;;7.00;99.90;;;;;;5101667;28;20046;-75
2022/11/12 02:00:10;;;;;;;11.63;8.35;;;6.90;99.90;;;;;;5100392;28;20047;-75
2022/11/12 02:02:38;;;;;;;8.38;7.03;;;6.90;99.90;;;;;;5118880;27;20043;-75
2022/11/12 02:05:07;;;;;;;11.60;9.02;;;7.00;99.90;;;;;;5102836;28;20425;-75
2022/11/12 02:07:35;;;;;;;11.38;8.48;;;6.20;99.90;;;;;;5120162;27;20043;-76
2022/11/12 02:10:02;;;;;;;8.25;7.43;;;6.90;99.90;;;;;;5120290;28;20031;-75
2022/11/12 02:15:12;;;;;;;11.60;7.90;;;6.90;99.90;;;;;;5117718;28;20074;-75
2022/11/12 02:17:38;;;;;;;12.73;8.85;;;6.90;99.90;;;;;;5120921;27;20478;-74
2022/11/12 02:20:07;;;;;;;10.85;7.20;;;7.20;99.90;;;;;;5120093;28;20084;-75
2022/11/12 02:22:32;;;;;;;11.68;8.18;;;6.90;99.90;;;;;;5120368;28;20398;-74
2022/11/12 02:24:58;;;;;;;12.57;8.40;;;7.10;99.90;;;;;;5121033;28;20039;-75
2022/11/12 02:27:24;;;;;;;12.73;8.57;;;8.20;99.90;;;;;;5119591;28;20028;-74
2022/11/12 02:29:50;;;;;;;9.77;8.65;;;6.70;99.90;;;;;;5120818;28;20419;-75
2022/11/12 02:32:15;;;;;;;12.45;8.77;;;8.00;99.90;;;;;;5103363;28;20070;-74
2022/11/12 02:34:41;;;;;;;12.07;8.88;;;6.80;99.90;;;;;;5102779;27;20062;-75
2022/11/12 02:37:06;;;;;;;10.48;8.23;;;6.80;99.90;;;;;;5127369;27;20074;-74
2022/11/12 02:39:33;;;;;;;11.52;8.80;;;6.80;99.90;;;;;;5102696;28;20035;-75
2022/11/12 02:41:58;;;;;;;12.15;8.73;;;6.80;99.90;;;;;;5147218;27;20668;-74
2022/11/12 02:44:24;;;;;;;10.70;8.27;;;6.80;99.90;;;;;;5123729;27;20158;-74
2022/11/12 02:46:50;;;;;;;11.63;8.73;;;6.80;99.90;;;;;;5144552;27;20496;-74
2022/11/12 02:49:15;;;;;;;10.98;8.43;;;6.70;99.90;;;;;;5127519;27;20062;-75
2022/11/12 02:51:41;;;;;;;13.77;9.20;;;6.80;99.90;;;;;;5127212;27;20073;-74
2022/11/12 02:54:07;;;;;;;13.00;9.43;;;6.70;99.90;;;;;;5138385;27;20055;-74
2022/11/12 02:56:34;;;;;;;10.32;8.43;;;6.80;99.90;;;;;;5142365;27;20085;-75
2022/11/12 02:59:00;;;;;;;11.77;8.73;;;6.80;99.90;;;;;;5113481;27;20054;-74
2022/11/12 03:01:25;;;;;;;11.05;8.43;;;8.00;99.90;;;;;;5106277;27;20039;-74
2022/11/12 03:03:51;;;;;;;11.82;9.32;;;6.70;99.90;;;;;;5130787;27;20042;-74
2022/11/12 03:06:17;;;;;;;9.13;8.13;;;6.70;99.90;;;;;;5106330;27;20038;-75
2022/11/12 03:08:42;;;;;;;9.25;7.57;;;6.60;99.90;;;;;;5130736;27;20047;-75
2022/11/12 03:11:11;;;;;;;10.73;8.02;;;6.70;99.90;;;;;;5106650;27;20031;-75
2022/11/12 03:13:38;;;;;;;12.60;8.88;;;6.70;99.90;;;;;;5106459;27;20095;-75
2022/11/12 03:16:04;;;;;;;10.95;8.02;;;7.70;99.90;;;;;;5128659;27;20137;-74
2022/11/12 03:18:29;;;;;;;12.88;8.68;;;6.60;99.90;;;;;;5123751;27;20039;-74
2022/11/12 03:20:55;;;;;;;14.43;9.10;;;6.60;99.90;;;;;;5126490;27;20061;-75
2022/11/12 03:23:21;;;;;;;9.20;8.27;;;6.40;99.90;;;;;;5109392;27;20030;-75
2022/11/12 03:25:46;;;;;;;9.10;8.20;;;6.60;99.90;;;;;;5127193;27;20046;-75
2022/11/12 03:28:14;;;;;;;13.15;8.20;;;6.50;99.90;;;;;;5151618;27;20398;-74
2022/11/12 03:30:41;;;;;;;8.85;7.93;;;6.50;99.90;;;;;;5119921;27;20146;-75
2022/11/12 03:33:10;;;;;;;11.88;8.00;;;6.60;99.90;;;;;;5113617;27;20113;-74
2022/11/12 03:35:37;;;;;;;9.75;8.27;;;6.50;99.90;;;;;;5118748;27;20689;-75
2022/11/12 03:38:03;;;;;;;12.88;8.75;;;7.40;99.90;;;;;;5131787;27;20062;-75
2022/11/12 03:40:30;;;;;;;8.85;7.85;;;6.90;99.90;;;;;;5122959;27;20056;-75
2022/11/12 03:42:56;;;;;;;10.38;9.02;;;6.80;99.90;;;;;;5120410;27;20069;-74
2022/11/12 03:45:23;;;;;;;10.57;8.68;;;6.40;99.90;;;;;;5111766;27;20044;-73
2022/11/12 03:47:51;;;;;;;10.68;8.68;;;6.40;99.90;;;;;;5117818;27;20036;-74
2022/11/12 03:50:19;;;;;;;9.95;8.45;;;6.40;99.90;;;;;;5122633;27;20062;-74
2022/11/12 03:52:46;;;;;;;10.80;8.40;;;6.30;99.90;;;;;;5121778;27;20031;-74
2022/11/12 03:55:14;;;;;;;12.68;8.27;;;6.30;99.90;;;;;;5124135;27;20112;-74
2022/11/12 03:57:40;;;;;;;8.77;7.45;;;6.30;99.90;;;;;;5117259;27;20570;-75
2022/11/12 04:00:07;;;;;;;11.32;8.23;;;6.30;99.90;;;;;;5122698;27;20058;-75
2022/11/12 04:02:33;;;;;;;12.15;8.57;;;6.30;99.90;;;;;;5122202;27;20075;-75
2022/11/12 04:10:28;;;;;;;12.77;8.63;;;6.30;99.90;;;;;;5118279;27;20407;-75
2022/11/12 04:15:38;;;;;;;13.23;9.02;;;6.30;99.90;;;;;;5128454;27;20053;-75
2022/11/12 04:23:33;;;;;;;10.05;8.85;;;6.10;99.90;;;;;;5120839;27;20104;-75
2022/11/12 04:30:14;;;;;;;9.65;8.43;;;6.10;99.90;;;;;;5118491;27;20149;-74
2022/11/12 04:31:28;;;;;;;10.55;8.45;;;6.10;99.90;;;;;;5117793;27;20043;-74
2022/11/12 04:33:54;;;;;;;10.70;8.63;;;6.10;99.90;;;;;;5121200;27;20372;-75
2022/11/12 04:36:19;;;;;;;10.35;8.07;;;6.10;99.90;;;;;;5104796;27;20039;-75
2022/11/12 04:38:45;;;;;;;10.48;8.48;;;6.30;99.90;;;;;;5122221;27;20080;-75
2022/11/12 04:46:39;;;;;;;12.18;8.65;;;7.10;99.90;;;;;;5123687;27;20043;-74
2022/11/12 04:49:05;;;;;;;8.68;7.75;;;7.40;99.90;;;;;;5122843;27;20091;-74
2022/11/12 04:54:14;;;;;;;8.77;7.88;;;5.90;99.90;;;;;;5118886;27;20067;-74
2022/11/12 04:56:40;;;;;;;10.38;8.82;;;5.80;99.90;;;;;;5121941;27;20073;-74
2022/11/12 04:59:05;;;;;;;10.38;7.93;;;5.80;99.90;;;;;;5105248;27;20086;-74
2022/11/12 05:01:31;;;;;;;10.52;8.48;;;5.80;99.90;;;;;;5122555;27;20035;-75
2022/11/12 05:03:57;;;;;;;7.97;7.18;;;7.70;99.90;;;;;;5119050;27;20053;-74
2022/11/12 05:09:06;;;;;;;10.80;8.50;;;6.70;99.90;;;;;;5126164;27;20055;-74
2022/11/12 05:11:32;;;;;;;8.57;7.75;;;5.70;99.90;;;;;;5125013;27;20134;-75
2022/11/12 05:13:58;;;;;;;11.38;8.25;;;5.70;99.90;;;;;;5125389;27;20039;-75
2022/11/12 05:16:23;;;;;;;8.98;7.97;;;5.70;99.90;;;;;;5125775;27;20088;-74
2022/11/12 05:18:49;;;;;;;10.50;8.13;;;5.70;99.90;;;;;;5121291;27;20047;-75
2022/11/12 05:23:59;;;;;;;10.68;9.25;;;5.60;99.90;;;;;;5125484;27;20490;-75
2022/11/12 05:26:24;;;;;;;9.55;8.57;;;5.60;99.90;;;;;;5117146;27;20072;-74
2022/11/12 05:28:50;;;;;;;10.07;8.43;;;5.60;99.90;;;;;;5125185;27;20035;-75
2022/11/12 05:31:16;;;;;;;12.02;9.18;;;5.60;99.90;;;;;;5119675;27;20040;-75
2022/11/12 05:33:41;;;;;;;12.55;8.23;;;5.60;99.90;;;;;;5116006;27;20039;-75
2022/11/12 05:36:07;;;;;;;10.38;9.20;;;5.60;99.90;;;;;;5106300;27;20059;-74
2022/11/12 05:38:33;;;;;;;12.55;7.90;;;4.90;99.90;;;;;;5080909;28;20131;-75
2022/11/12 05:40:58;;;;;;;10.93;7.97;;;5.60;99.90;;;;;;5089101;28;20563;-74
2022/11/12 05:43:24;;;;;;;10.13;8.52;;;5.50;99.90;;;;;;5102622;28;20032;-74
2022/11/12 05:45:50;;;;;;;12.88;8.25;;;7.40;99.90;;;;;;5103374;28;20039;-74
2022/11/12 05:48:15;;;;;;;10.07;9.02;;;5.60;99.90;;;;;;5100331;28;20510;-74
2022/11/12 05:50:41;;;;;;;9.85;8.73;;;6.10;99.90;;;;;;5102410;28;20048;-74
2022/11/12 05:53:07;;;;;;;8.52;7.65;;;5.10;99.90;;;;;;5099686;28;20510;-74
2022/11/12 05:55:32;;;;;;;9.60;8.60;;;5.40;99.90;;;;;;5079918;28;20036;-75
2022/11/12 05:58:02;;;;;;;10.25;9.13;;;5.40;99.90;;;;;;5078911;28;20028;-75
2022/11/12 06:00:28;;;;;;;9.73;8.73;;;5.40;99.90;;;;;;5098058;28;20043;-75
2022/11/12 06:02:57;;;;;;;10.93;9.13;;;5.40;99.90;;;;;;5107013;28;20446;-74
2022/11/12 06:05:23;;;;;;;13.38;10.25;;;5.40;99.90;;;;;;5096107;28;20058;-75
2022/11/12 06:07:48;;;;;;;11.02;9.35;;;5.40;99.90;;;;;;5082998;28;20496;-75
2022/11/12 06:10:14;;;;;;;12.07;9.68;;;5.40;99.90;;;;;;5086709;28;20388;-75
2022/11/12 06:12:40;;;;;;;13.60;9.55;;;5.50;99.90;;;;;;5101229;28;20047;-75
2022/11/12 06:15:06;;;;;;;12.82;9.07;;;6.40;99.90;;;;;;5104200;28;20032;-74
2022/11/12 06:17:31;;;;;;;11.20;9.00;;;5.50;99.90;;;;;;5105627;28;20093;-74
2022/11/12 06:19:57;;;;;;;11.65;9.30;;;5.40;99.90;;;;;;5111156;28;20120;-74
2022/11/12 06:22:23;;;;;;;13.13;9.75;;;5.40;99.90;;;;;;5107438;28;20036;-75
2022/11/12 06:24:48;;;;;;;14.45;9.85;;;5.50;99.90;;;;;;5103067;28;20043;-74
2022/11/12 06:27:14;;;;;;;16.70;10.65;;;5.40;99.90;;;;;;5107148;28;20068;-74
2022/11/12 06:29:39;;;;;;;13.75;10.40;;;5.40;99.90;;;;;;5105752;28;20047;-74
2022/11/12 06:32:05;;;;;;;19.17;13.10;;;5.40;99.90;;;;;;5090456;28;20044;-74
2022/11/12 06:34:31;;;;;;;18.27;13.73;;;5.40;99.90;;;;;;5109896;27;20106;-74
2022/11/12 06:36:56;;;;;;;17.52;13.05;;;5.40;99.90;;;;;;5127180;27;20058;-75
2022/11/12 06:39:22;;;;;;;21.20;13.68;;;5.50;99.90;;;;;;5139763;27;20057;-74
2022/11/12 06:41:47;;;;;;;16.63;13.10;;;5.60;99.90;;;;;;5147511;27;20057;-75
2022/11/12 06:44:13;;;;;;;16.25;12.82;;;7.10;99.90;;;;;;5144812;27;20077;-74
2022/11/12 06:46:39;;;;;;;17.17;12.15;;;5.60;99.90;;;;;;5129505;27;20103;-74
2022/11/12 06:49:04;;;;;;;18.17;11.98;;;5.60;99.90;;;;;;5128023;27;20086;-74
2022/11/12 06:51:30;;;;;;;18.95;12.88;;;5.70;99.90;;;;;;5149910;27;20074;-75
2022/11/12 06:53:56;;;;;;;16.40;11.88;;;5.70;99.90;;;;;;5122906;27;20339;-74
2022/11/12 06:56:21;;;;;;;15.35;11.68;;;5.70;99.90;;;;;;5127702;27;20084;-74
2022/11/12 06:58:47;;;;;;;17.05;12.05;;;5.70;99.90;;;;;;5145067;27;20058;-75
2022/11/12 07:01:16;;;;;;;19.27;13.15;;;6.40;99.90;;;;;;5108258;27;20122;-74
2022/11/12 07:03:43;;;;;;;23.70;12.45;;;5.70;99.90;;;;;;5146504;27;20043;-75
2022/11/12 07:06:17;;;;;;;18.52;12.73;;;5.70;99.90;;;;;;5124506;27;20597;-75
2022/11/12 07:08:42;;;;;;;21.08;12.75;;;5.70;99.90;;;;;;5146971;27;20042;-75
2022/11/12 07:11:09;;;;;;;19.58;13.35;;;5.70;99.90;;;;;;5126946;27;20445;-74
2022/11/12 07:13:36;;;;;;;20.45;14.55;;;5.70;99.90;;;;;;5126800;27;20035;-74
2022/11/12 07:16:03;;;;;;;25.48;14.63;;;5.80;99.90;;;;;;5126224;27;20053;-75
2022/11/12 07:18:29;;;;;;;21.58;13.80;;;5.80;99.90;;;;;;5144506;27;20027;-74
2022/11/12 07:21:11;;;;;;;22.05;13.63;;;5.70;99.90;;;;;;5109238;27;20070;-75
2022/11/12 07:23:37;;;;;;;21.08;12.88;;;5.80;99.90;;;;;;5127159;27;20050;-75
2022/11/12 07:26:11;;;;;;;30.05;14.40;;;5.80;99.90;;;;;;5126078;27;20049;-75
2022/11/12 07:28:37;;;;;;;24.65;15.18;;;4.60;99.90;;;;;;5127543;27;20129;-75
2022/11/12 07:31:05;;;;;;;28.67;16.15;;;5.70;99.90;;;;;;5126606;27;20118;-74
2022/11/12 07:33:33;;;;;;;33.05;14.85;;;5.80;99.90;;;;;;5109992;27;20043;-74
2022/11/12 07:36:07;;;;;;;23.92;14.25;;;5.70;99.90;;;;;;5109079;27;20062;-74
2022/11/12 07:38:35;;;;;;;27.40;15.75;;;5.90;99.90;;;;;;5102121;27;20039;-74
2022/11/12 07:41:07;;;;;;;25.67;14.48;;;5.90;99.90;;;;;;5124800;27;20544;-75
2022/11/12 07:43:35;;;;;;;23.75;14.68;;;6.00;99.90;;;;;;5118625;27;20065;-74
2022/11/12 07:46:03;;;;;;;24.20;15.57;;;5.90;99.90;;;;;;5142295;27;20043;-74
2022/11/12 07:48:29;;;;;;;28.50;16.38;;;6.00;99.90;;;;;;5136613;27;20037;-74
2022/11/12 07:51:03;;;;;;;30.10;15.55;;;6.00;99.90;;;;;;5130364;27;20474;-74
2022/11/12 07:53:29;;;;;;;32.58;16.90;;;6.00;99.90;;;;;;5118594;27;20039;-74
2022/11/12 07:55:57;;;;;;;72.05;21.77;;;6.10;99.90;;;;;;5129284;27;20035;-74
2022/11/12 07:58:23;;;;;;;150.80;26.40;;;6.10;99.90;;;;;;5119641;27;20392;-75
2022/11/12 08:00:50;;;;;;;25.33;16.73;;;6.10;99.90;;;;;;5128341;27;20045;-75
2022/11/12 08:03:16;;;;;;;25.75;16.02;;;6.10;99.90;;;;;;5123335;27;20043;-74
2022/11/12 08:05:41;;;;;;;29.33;16.42;;;6.10;99.90;;;;;;5111686;27;20509;-74
2022/11/12 08:08:07;;;;;;;47.08;19.65;;;6.20;99.90;;;;;;5131087;27;20122;-74
2022/11/12 08:10:33;;;;;;;41.53;19.13;;;6.20;99.90;;;;;;5122056;27;20558;-75
2022/11/12 08:12:59;;;;;;;84.57;25.83;;;6.60;99.90;;;;;;5122553;27;20039;-74
2022/11/12 08:15:24;;;;;;;48.65;26.75;;;6.30;99.90;;;;;;5130624;27;20034;-74
2022/11/12 08:17:50;;;;;;;36.78;22.48;;;6.30;99.90;;;;;;5104396;27;20475;-74
2022/11/12 08:20:16;;;;;;;48.63;22.15;;;6.30;99.90;;;;;;5123553;27;20118;-75
2022/11/12 08:22:41;;;;;;;40.83;20.50;;;6.40;99.90;;;;;;5140939;27;20051;-75
2022/11/12 08:25:07;;;;;;;46.10;21.27;;;6.40;99.90;;;;;;5128901;27;20050;-73
2022/11/12 08:27:33;;;;;;;36.65;19.52;;;6.50;99.90;;;;;;5137404;27;20107;-74
2022/11/12 08:29:59;;;;;;;36.97;21.35;;;6.50;99.90;;;;;;5121085;27;20039;-75
2022/11/12 08:32:24;;;;;;;38.55;22.00;;;6.50;99.90;;;;;;5136744;27;20047;-75
2022/11/12 08:34:50;;;;;;;43.42;22.77;;;6.60;99.90;;;;;;5145297;27;20051;-75
2022/11/12 08:37:15;;;;;;;61.67;22.83;;;6.60;99.90;;;;;;5125002;27;20051;-74
2022/11/12 08:39:41;;;;;;;39.10;21.75;;;6.60;99.90;;;;;;5124884;27;20097;-74
2022/11/12 08:42:07;;;;;;;47.90;22.83;;;6.70;99.90;;;;;;5102479;27;20088;-74
2022/11/12 08:44:32;;;;;;;44.22;23.70;;;6.70;99.90;;;;;;5148341;27;20444;-74
2022/11/12 08:47:01;;;;;;;47.83;23.67;;;6.70;99.90;;;;;;5104354;27;20047;-75
2022/11/12 08:49:28;;;;;;;46.10;24.77;;;7.10;99.90;;;;;;5123998;27;20623;-75
2022/11/12 08:51:54;;;;;;;51.90;25.58;;;8.30;99.90;;;;;;5107243;27;20133;-75
2022/11/12 08:54:20;;;;;;;39.50;21.67;;;6.90;99.90;;;;;;5123451;27;20063;-75
2022/11/12 08:56:46;;;;;;;41.00;21.98;;;6.90;99.90;;;;;;5108497;27;20058;-75
2022/11/12 08:59:11;;;;;;;41.30;22.60;;;6.90;99.90;;;;;;5107683;27;20495;-75
2022/11/12 09:01:37;;;;;;;37.90;21.42;;;7.00;99.90;;;;;;5124778;27;20045;-75
2022/11/12 09:04:02;;;;;;;45.25;22.30;;;7.00;99.90;;;;;;5107343;27;20051;-75
2022/11/12 09:06:28;;;;;;;56.28;24.15;;;7.00;99.90;;;;;;5140808;27;20094;-75
2022/11/12 09:08:54;;;;;;;53.13;24.85;;;7.00;99.90;;;;;;5125107;27;20038;-75
2022/11/12 09:11:19;;;;;;;45.88;23.08;;;7.10;99.90;;;;;;5123457;27;20122;-75
2022/11/12 09:13:45;;;;;;;58.20;24.58;;;7.10;99.90;;;;;;5123819;27;20046;-75
2022/11/12 09:16:10;;;;;;;47.75;22.65;;;7.10;99.90;;;;;;5142853;27;20023;-75
2022/11/12 09:18:36;;;;;;;52.22;23.05;;;7.20;99.90;;;;;;5106812;27;20030;-75
2022/11/12 09:21:05;;;;;;;58.78;24.95;;;7.20;99.90;;;;;;5117850;27;20047;-75
2022/11/12 09:23:33;;;;;;;56.15;25.20;;;7.20;99.90;;;;;;5124613;27;20469;-75
2022/11/12 09:25:59;;;;;;;48.75;25.17;;;7.20;99.90;;;;;;5107167;27;20398;-75
2022/11/12 09:28:25;;;;;;;46.53;23.92;;;7.30;99.90;;;;;;5122337;27;20255;-75
2022/11/12 09:30:52;;;;;;;56.75;25.63;;;7.30;99.90;;;;;;5124901;27;20044;-75
2022/11/12 09:33:23;;;;;;;66.78;24.83;;;7.40;99.90;;;;;;5106516;27;20039;-75
2022/11/12 09:35:50;;;;;;;68.57;27.80;;;7.30;99.90;;;;;;5106839;27;20047;-75
2022/11/12 09:38:18;;;;;;;59.95;27.10;;;7.40;99.90;;;;;;5108430;27;20464;-75
2022/11/12 09:41:12;;;;;;;61.75;27.83;;;7.40;99.90;;;;;;5107981;27;20090;-75
2022/11/12 09:43:52;;;;;;;71.07;27.50;;;7.40;99.90;;;;;;5140364;27;20050;-75
2022/11/12 09:46:33;;;;;;;54.20;26.95;;;7.40;99.90;;;;;;5116989;27;20047;-75
2022/11/12 09:49:18;;;;;;;60.47;27.45;;;7.40;99.90;;;;;;5124364;27;20465;-75
2022/11/12 09:52:15;;;;;;;56.03;25.63;;;8.10;99.90;;;;;;5103521;27;20069;-75
2022/11/12 09:54:41;;;;;;;59.15;26.25;;;7.50;99.90;;;;;;5119678;27;20051;-75
2022/11/12 09:57:11;;;;;;;74.47;29.42;;;7.50;99.90;;;;;;5125398;27;20034;-75
2022/11/12 09:59:40;;;;;;;54.78;26.40;;;7.50;99.90;;;;;;5116523;27;20047;-75
2022/11/12 10:02:40;;;;;;;47.78;27.00;;;7.50;99.90;;;;;;5114750;27;20041;-75
2022/11/12 10:05:16;;;;;;;48.38;26.38;;;7.50;99.90;;;;;;5096044;28;20050;-75
2022/11/12 10:08:03;;;;;;;55.17;26.20;;;7.50;99.90;;;;;;5123702;27;20146;-75
2022/11/12 10:10:43;;;;;;;54.70;25.08;;;7.50;99.90;;;;;;5104950;27;20065;-75
2022/11/12 10:13:26;;;;;;;52.72;23.38;;;7.60;99.90;;;;;;5142291;27;20489;-75
2022/11/12 10:19:24;;;;;;;42.78;24.15;;;7.60;99.90;;;;;;5139050;27;20066;-74
2022/11/12 10:21:59;;;;;;;45.67;23.27;;;7.60;99.90;;;;;;5116653;27;20034;-75
2022/11/12 10:24:32;;;;;;;40.78;22.98;;;7.60;99.90;;;;;;5096393;28;20509;-74
2022/11/12 10:26:58;;;;;;;41.45;22.98;;;7.60;99.90;;;;;;5130143;27;20039;-75
2022/11/12 10:29:45;;;;;;;38.40;21.75;;;8.60;99.90;;;;;;5115687;28;20039;-75
2022/11/12 10:32:14;;;;;;;43.08;23.25;;;7.90;99.90;;;;;;5122806;28;20128;-75
2022/11/12 10:34:39;;;;;;;40.58;23.90;;;7.70;99.90;;;;;;5119931;27;20506;-75
2022/11/12 10:37:22;;;;;;;37.10;24.30;;;7.70;99.90;;;;;;5116408;28;20047;-75
2022/11/12 10:39:47;;;;;;;31.48;22.55;;;7.70;99.90;;;;;;5101652;27;20070;-75
2022/11/12 10:42:16;;;;;;;44.42;23.77;;;8.80;99.90;;;;;;5148431;27;20097;-76
2022/11/12 10:44:43;;;;;;;30.00;21.95;;;7.80;99.90;;;;;;5111294;27;20046;-75
2022/11/12 10:47:19;;;;;;;40.88;23.25;;;8.60;99.90;;;;;;5137677;27;20398;-75
2022/11/12 10:50:09;;;;;;;31.13;22.75;;;7.80;99.90;;;;;;5147596;27;20046;-77
2022/11/12 10:52:35;;;;;;;35.78;24.67;;;7.80;99.90;;;;;;5121210;27;20517;-75
2022/11/12 10:55:16;;;;;;;28.90;22.45;;;7.80;99.90;;;;;;5143675;27;20073;-75
2022/11/12 10:57:42;;;;;;;35.50;24.63;;;7.80;99.90;;;;;;5127620;27;20112;-76
2022/11/12 11:00:11;;;;;;;31.48;24.08;;;7.80;99.90;;;;;;5130428;27;20474;-77
2022/11/12 11:02:44;;;;;;;45.58;24.55;;;8.40;99.90;;;;;;5140023;27;20064;-76
2022/11/12 11:05:45;;;;;;;36.45;24.17;;;7.80;99.90;;;;;;5109116;27;20082;-76
2022/11/12 11:08:10;;;;;;;29.58;22.77;;;7.80;99.90;;;;;;5102665;27;20090;-78
2022/11/12 11:10:36;;;;;;;31.42;24.00;;;8.00;99.90;;;;;;5111086;27;20078;-77
2022/11/12 11:13:25;;;;;;;41.90;24.35;;;9.10;99.90;;;;;;5145139;27;20397;-76
2022/11/12 11:16:05;;;;;;;31.27;23.30;;;8.10;99.90;;;;;;5147493;27;20078;-74
2022/11/12 11:18:34;;;;;;;32.35;23.23;;;7.90;99.90;;;;;;5128887;27;20068;-75
2022/11/12 11:21:11;;;;;;;27.67;23.02;;;7.90;99.90;;;;;;5127977;27;20683;-74
2022/11/12 11:23:56;;;;;;;35.60;23.58;;;7.90;99.90;;;;;;5101072;27;20047;-76
2022/11/12 11:26:34;;;;;;;;;;;7.90;99.90;;;;;;5106384;27;20039;-74
2022/11/12 11:29:32;;;;;;;39.70;23.85;;;7.90;99.90;;;;;;5107876;27;20014;-75
2022/11/12 11:32:25;;;;;;;32.50;23.67;;;7.90;99.90;;;;;;5126605;27;20155;-74
2022/11/12 11:35:32;;;;;;;29.35;22.98;;;8.00;99.90;;;;;;5111246;27;20059;-76
2022/11/12 11:38:37;;;;;;;28.75;23.55;;;7.90;99.90;;;;;;5063985;27;20491;-76
2022/11/12 11:41:41;;;;;;;32.85;23.58;;;8.00;99.90;;;;;;5118041;27;20039;-77
2022/11/12 11:44:26;;;;;;;32.92;23.92;;;8.00;99.90;;;;;;5052802;28;20425;-77
2022/11/12 11:47:22;;;;;;;43.20;25.80;;;8.10;99.90;;;;;;5105478;27;20043;-77
2022/11/12 11:50:00;;;;;;;35.40;24.38;;;8.10;99.90;;;;;;5119340;27;20169;-79
2022/11/12 11:52:44;;;;;;;36.50;26.88;;;8.10;99.90;;;;;;5118037;27;20040;-75
2022/11/12 11:55:40;;;;;;;34.63;26.45;;;8.20;99.90;;;;;;5100593;28;20039;-73
2022/11/12 11:58:30;;;;;;;35.17;26.00;;;8.20;99.90;;;;;;5124194;27;20054;-75
2022/11/12 12:01:15;;;;;;;35.38;26.65;;;8.20;99.90;;;;;;5108814;27;20046;-73
2022/11/12 12:04:01;;;;;;;52.60;37.60;;;8.30;99.90;;;;;;5129331;27;20508;-74
2022/11/12 12:06:35;;;;;;;40.70;27.65;;;8.30;99.90;;;;;;5099705;28;20367;-74
2022/11/12 12:09:27;;;;;;;36.38;27.15;;;8.30;99.90;;;;;;5119144;27;20047;-73
2022/11/12 12:12:20;;;;;;;38.42;27.98;;;8.30;99.90;;;;;;5120687;27;20044;-73
2022/11/12 12:14:54;;;;;;;35.22;28.35;;;8.30;99.90;;;;;;5120859;27;20039;-73
2022/11/12 12:17:40;;;;;;;37.38;26.50;;;8.40;99.90;;;;;;5099789;27;20074;-76
2022/11/12 12:20:14;;;;;;;40.40;28.75;;;8.40;99.90;;;;;;5099984;28;20043;-73
2022/11/12 12:22:49;;;;;;;;;;;8.40;99.90;;;;;;5121862;27;20054;-74
2022/11/12 12:25:21;;;;;;;38.10;27.77;;;8.50;99.90;;;;;;5098979;27;20011;-75
2022/11/12 12:27:54;;;;;;;42.50;29.15;;;8.50;99.90;;;;;;5119979;27;20050;-75
2022/11/12 12:30:22;;;;;;;37.33;27.30;;;8.50;99.90;;;;;;5123031;27;20031;-74
2022/11/12 12:32:55;;;;;;;38.63;30.13;;;8.10;99.90;;;;;;5128796;27;20128;-74
2022/11/12 12:35:43;;;;;;;37.65;29.77;;;8.50;99.90;;;;;;5104691;27;20482;-73
2022/11/12 12:38:37;;;;;;;45.25;30.05;;;8.40;99.90;;;;;;5101218;28;20038;-74
2022/11/12 12:41:44;;;;;;;42.17;30.95;;;8.40;99.90;;;;;;5110343;27;20047;-76
2022/11/12 12:44:10;;;;;;;37.60;27.80;;;8.40;99.90;;;;;;4340500;27;10000680;-73
2022/11/12 12:46:43;;;;;;;40.50;28.23;;;9.30;99.90;;;;;;5117424;27;20446;-74
2022/11/12 12:49:16;;;;;;;41.17;29.10;;;8.50;99.90;;;;;;5111551;27;20046;-74
2022/11/12 12:51:42;;;;;;;39.58;29.15;;;8.50;99.90;;;;;;5117233;27;20054;-75
2022/11/12 12:54:49;;;;;;;35.72;28.73;;;8.60;99.90;;;;;;5126984;27;20391;-75
2022/11/12 12:57:36;;;;;;;36.75;29.15;;;8.60;99.90;;;;;;5101019;27;20035;-75
2022/11/12 13:00:35;;;;;;;39.38;27.52;;;9.50;99.90;;;;;;5118199;27;20047;-75
2022/11/12 13:03:01;;;;;;;40.85;30.92;;;8.70;99.90;;;;;;5122139;27;20058;-75
2022/11/12 13:05:31;;;;;;;35.40;29.38;;;8.70;99.90;;;;;;5117601;27;20051;-74
2022/11/12 13:08:01;;;;;;;37.47;28.85;;;8.70;99.90;;;;;;5117437;27;20051;-74
2022/11/12 13:10:48;;;;;;;34.97;27.50;;;8.70;99.90;;;;;;5108957;27;20603;-74
2022/11/12 13:13:17;;;;;;;36.00;29.95;;;8.80;99.90;;;;;;5093062;28;20032;-76
2022/11/12 13:15:54;;;;;;;42.63;31.00;;;8.80;99.90;;;;;;5098502;28;20129;-75
2022/11/12 13:18:38;;;;;;;46.97;34.58;;;9.90;99.90;;;;;;5098326;27;20038;-72
2022/11/12 13:21:13;;;;;;;42.03;31.13;;;9.70;99.90;;;;;;5118074;27;20065;-72
2022/11/12 13:26:51;;;;;;;37.60;29.27;;;9.00;99.90;;;;;;5123617;27;20046;-73
2022/11/12 13:29:21;;;;;;;37.22;29.35;;;9.00;99.90;;;;;;5117402;27;20040;-72
2022/11/12 13:31:47;;;;;;;32.17;26.58;;;9.10;99.90;;;;;;5107367;27;20043;-72
2022/11/12 13:34:29;;;;;;;32.33;26.90;;;9.10;99.90;;;;;;5117806;27;20038;-72
2022/11/12 13:37:03;;;;;;;34.70;27.27;;;8.80;99.90;;;;;;5098797;28;20051;-73
2022/11/12 13:39:33;;;;;;;32.95;27.02;;;9.10;99.90;;;;;;5100808;28;20040;-73